sensor_id;sensor_type;location;lat;lon;timestamp;pressure;altitude;pressure_sealevel;temperature;humidity
15272;BME280;7737;51.578;7.268;2024-03-02T00:00:29;99591.56;;;8.98;100.00
15272;BME280;7737;51.578;7.268;2024-03-02T00:02:56;99590.44;;;9.02;100.00
15272;BME280;7737;51.578;7.268;2024-03-02T00:05:24;99576.81;;;8.94;100.00
15272;BME280;7737;51.578;7.268;2024-03-02T00:07:53;99583.72;;;8.97;100.00
15272;BME280;7737;51.578;7.268;2024-03-02T00:10:22;99591.84;;;8.94;100.00
15272;BME280;7737;51.578;7.268;2024-03-02T00:12:50;99595.53;;;9.05;100.00
15272;BME280;7737;51.578;7.268;2024-03-02T00:15:39;99593.91;;;9.03;100.00
15272;BME280;7737;51.578;7.268;2024-03-02T00:18:07;99585.53;;;9.10;100.00
15272;BME280;7737;51.578;7.268;2024-03-02T00:20:35;99587.97;;;8.99;100.00
15272;BME280;7737;51.578;7.268;2024-03-02T00:23:03;99596.97;;;8.97;100.00
15272;BME280;7737;51.578;7.268;2024-03-02T00:25:39;99587.41;;;8.94;100.00
15272;BME280;7737;51.578;7.268;2024-03-02T00:28:13;99592.72;;;8.94;100.00
15272;BME280;7737;51.578;7.268;2024-03-02T00:30:54;99595.19;;;8.97;100.00
15272;BME280;7737;51.578;7.268;2024-03-02T00:33:21;99579.72;;;9.04;100.00
15272;BME280;7737;51.578;7.268;2024-03-02T00:35:50;99577.75;;;9.07;100.00
15272;BME280;7737;51.578;7.268;2024-03-02T00:38:16;99576.41;;;9.00;100.00
15272;BME280;7737;51.578;7.268;2024-03-02T00:40:44;99580.28;;;8.81;100.00
15272;BME280;7737;51.578;7.268;2024-03-02T00:43:38;99578.03;;;8.89;100.00
15272;BME280;7737;51.578;7.268;2024-03-02T00:46:06;99574.34;;;8.91;100.00
15272;BME280;7737;51.578;7.268;2024-03-02T00:48:33;99570.66;;;8.94;100.00
15272;BME280;7737;51.578;7.268;2024-03-02T00:51:03;99565.34;;;8.94;100.00
15272;BME280;7737;51.578;7.268;2024-03-02T00:53:31;99569.13;;;8.76;100.00
15272;BME280;7737;51.578;7.268;2024-03-02T00:55:58;99570.72;;;8.78;100.00
15272;BME280;7737;51.578;7.268;2024-03-02T00:58:25;99563.63;;;8.79;100.00
15272;BME280;7737;51.578;7.268;2024-03-02T01:00:51;99552.94;;;8.80;100.00
15272;BME280;7737;51.578;7.268;2024-03-02T01:03:18;99559.28;;;8.78;100.00
15272;BME280;7737;51.578;7.268;2024-03-02T01:05:45;99559.38;;;8.76;100.00
15272;BME280;7737;51.578;7.268;2024-03-02T01:08:13;99555.38;;;8.69;100.00
15272;BME280;7737;51.578;7.268;2024-03-02T01:10:40;99549.50;;;8.64;100.00
15272;BME280;7737;51.578;7.268;2024-03-02T01:13:06;99554.72;;;8.80;100.00
15272;BME280;7737;51.578;7.268;2024-03-02T01:15:33;99553.13;;;8.77;100.00
15272;BME280;7737;51.578;7.268;2024-03-02T01:17:59;99551.69;;;8.72;100.00
15272;BME280;7737;51.578;7.268;2024-03-02T01:20:26;99548.41;;;8.68;100.00
15272;BME280;7737;51.578;7.268;2024-03-02T01:22:53;99553.69;;;8.68;100.00
15272;BME280;7737;51.578;7.268;2024-03-02T01:25:22;99553.69;;;8.68;100.00
15272;BME280;7737;51.578;7.268;2024-03-02T01:27:48;99542.59;;;8.62;100.00
15272;BME280;7737;51.578;7.268;2024-03-02T01:30:15;99557.91;;;8.56;100.00
15272;BME280;7737;51.578;7.268;2024-03-02T01:32:41;99551.28;;;8.49;100.00
15272;BME280;7737;51.578;7.268;2024-03-02T01:35:08;99540.97;;;8.45;100.00
15272;BME280;7737;51.578;7.268;2024-03-02T01:37:34;99554.69;;;8.51;100.00
15272;BME280;7737;51.578;7.268;2024-03-02T01:40:01;99561.03;;;8.49;100.00
15272;BME280;7737;51.578;7.268;2024-03-02T01:42:35;99549.50;;;8.64;100.00
15272;BME280;7737;51.578;7.268;2024-03-02T01:45:03;99554.50;;;8.54;100.00
15272;BME280;7737;51.578;7.268;2024-03-02T01:47:30;99541.66;;;8.63;100.00
15272;BME280;7737;51.578;7.268;2024-03-02T01:49:57;99548.94;;;8.59;100.00
15272;BME280;7737;51.578;7.268;2024-03-02T01:52:24;99544.72;;;8.71;100.00
15272;BME280;7737;51.578;7.268;2024-03-02T01:54:50;99541.03;;;8.73;100.00
15272;BME280;7737;51.578;7.268;2024-03-02T01:57:17;99538.72;;;8.67;100.00
15272;BME280;7737;51.578;7.268;2024-03-02T01:59:46;99536.44;;;8.61;100.00
15272;BME280;7737;51.578;7.268;2024-03-02T02:02:13;99543.09;;;8.68;100.00
15272;BME280;7737;51.578;7.268;2024-03-02T02:04:40;99549.88;;;8.58;100.00
15272;BME280;7737;51.578;7.268;2024-03-02T02:07:07;99539.56;;;8.53;100.00
15272;BME280;7737;51.578;7.268;2024-03-02T02:09:33;99539.38;;;8.56;100.00
15272;BME280;7737;51.578;7.268;2024-03-02T02:11:59;99539.44;;;8.41;100.00
15272;BME280;7737;51.578;7.268;2024-03-02T02:14:26;99542.13;;;8.55;100.00
15272;BME280;7737;51.578;7.268;2024-03-02T02:16:54;99534.84;;;8.44;100.00
15272;BME280;7737;51.578;7.268;2024-03-02T02:19:20;99536.06;;;8.53;100.00
15272;BME280;7737;51.578;7.268;2024-03-02T02:21:48;99532.63;;;8.37;100.00
15272;BME280;7737;51.578;7.268;2024-03-02T02:24:15;99533.88;;;8.45;100.00
15272;BME280;7737;51.578;7.268;2024-03-02T02:26:41;99534.44;;;8.36;100.00
15272;BME280;7737;51.578;7.268;2024-03-02T02:29:07;99533.00;;;8.45;100.00
15272;BME280;7737;51.578;7.268;2024-03-02T02:31:37;99522.53;;;8.43;100.00
15272;BME280;7737;51.578;7.268;2024-03-02T02:34:04;99523.00;;;8.50;100.00
15272;BME280;7737;51.578;7.268;2024-03-02T02:36:31;99521.44;;;8.32;100.00
15272;BME280;7737;51.578;7.268;2024-03-02T02:39:00;99516.72;;;8.37;100.00
15272;BME280;7737;51.578;7.268;2024-03-02T02:41:28;99514.19;;;8.35;100.00
15272;BME280;7737;51.578;7.268;2024-03-02T02:43:55;99522.53;;;8.43;100.00
15272;BME280;7737;51.578;7.268;2024-03-02T02:46:21;99525.44;;;8.39;100.00
15272;BME280;7737;51.578;7.268;2024-03-02T02:48:48;99520.06;;;8.40;100.00
15272;BME280;7737;51.578;7.268;2024-03-02T02:51:16;99516.09;;;8.47;100.00
15272;BME280;7737;51.578;7.268;2024-03-02T02:53:43;99516.56;;;8.40;100.00
15272;BME280;7737;51.578;7.268;2024-03-02T02:56:11;99517.13;;;8.45;100.00
15272;BME280;7737;51.578;7.268;2024-03-02T02:58:37;99521.00;;;8.39;100.00
15272;BME280;7737;51.578;7.268;2024-03-02T03:01:04;99517.81;;;8.48;100.00
15272;BME280;7737;51.578;7.268;2024-03-02T03:03:30;99516.88;;;8.49;100.00
15272;BME280;7737;51.578;7.268;2024-03-02T03:05:57;99516.59;;;8.54;100.00
15272;BME280;7737;51.578;7.268;2024-03-02T03:08:22;99520.84;;;8.56;100.00
15272;BME280;7737;51.578;7.268;2024-03-02T03:10:49;99502.75;;;8.63;100.00
15272;BME280;7737;51.578;7.268;2024-03-02T03:13:17;99513.75;;;8.57;100.00
15272;BME280;7737;51.578;7.268;2024-03-02T03:15:43;99512.72;;;8.60;100.00
15272;BME280;7737;51.578;7.268;2024-03-02T03:18:10;99510.81;;;8.62;100.00
15272;BME280;7737;51.578;7.268;2024-03-02T03:20:36;99494.81;;;8.63;100.00
15272;BME280;7737;51.578;7.268;2024-03-02T03:23:03;99495.19;;;8.71;100.00
15272;BME280;7737;51.578;7.268;2024-03-02T03:25:30;99485.28;;;8.75;100.00
15272;BME280;7737;51.578;7.268;2024-03-02T03:27:56;99486.50;;;8.69;100.00
15272;BME280;7737;51.578;7.268;2024-03-02T03:30:24;99492.00;;;8.80;100.00
15272;BME280;7737;51.578;7.268;2024-03-02T03:32:51;99491.81;;;8.69;100.00
15272;BME280;7737;51.578;7.268;2024-03-02T03:35:17;99477.81;;;8.81;100.00
15272;BME280;7737;51.578;7.268;2024-03-02T03:37:44;99481.19;;;8.69;100.00
15272;BME280;7737;51.578;7.268;2024-03-02T03:40:11;99497.09;;;8.69;100.00
15272;BME280;7737;51.578;7.268;2024-03-02T03:42:39;99488.03;;;8.73;100.00
15272;BME280;7737;51.578;7.268;2024-03-02T03:45:06;99486.59;;;8.82;100.00
15272;BME280;7737;51.578;7.268;2024-03-02T03:47:34;99473.44;;;8.80;100.00
15272;BME280;7737;51.578;7.268;2024-03-02T03:50:01;99479.13;;;8.74;100.00
15272;BME280;7737;51.578;7.268;2024-03-02T03:52:32;99490.28;;;8.79;100.00
15272;BME280;7737;51.578;7.268;2024-03-02T03:54:58;99486.13;;;8.75;100.00
15272;BME280;7737;51.578;7.268;2024-03-02T03:57:25;99494.84;;;8.77;100.00
15272;BME280;7737;51.578;7.268;2024-03-02T03:59:51;99490.84;;;8.84;100.00
15272;BME280;7737;51.578;7.268;2024-03-02T04:02:18;99498.03;;;8.82;100.00
15272;BME280;7737;51.578;7.268;2024-03-02T04:04:46;99503.28;;;8.84;100.00
15272;BME280;7737;51.578;7.268;2024-03-02T04:07:12;99500.13;;;8.77;100.00
15272;BME280;7737;51.578;7.268;2024-03-02T04:09:39;99506.19;;;8.79;100.00
15272;BME280;7737;51.578;7.268;2024-03-02T04:12:05;99502.50;;;8.82;100.00
15272;BME280;7737;51.578;7.268;2024-03-02T04:14:32;99498.22;;;8.79;100.00
15272;BME280;7737;51.578;7.268;2024-03-02T04:16:58;99500.31;;;8.74;100.00
15272;BME280;7737;51.578;7.268;2024-03-02T04:19:25;99496.91;;;8.72;100.00
15272;BME280;7737;51.578;7.268;2024-03-02T04:21:53;99492.66;;;8.70;100.00
15272;BME280;7737;51.578;7.268;2024-03-02T04:24:19;99499.19;;;8.64;100.00
15272;BME280;7737;51.578;7.268;2024-03-02T04:26:46;99505.06;;;8.55;100.00
15272;BME280;7737;51.578;7.268;2024-03-02T04:29:12;99508.28;;;8.60;100.00
15272;BME280;7737;51.578;7.268;2024-03-02T04:31:39;99516.13;;;8.62;100.00
15272;BME280;7737;51.578;7.268;2024-03-02T04:34:05;99504.97;;;8.71;100.00
15272;BME280;7737;51.578;7.268;2024-03-02T04:36:32;99508.47;;;8.57;100.00
15272;BME280;7737;51.578;7.268;2024-03-02T04:39:00;99507.22;;;8.48;100.00
15272;BME280;7737;51.578;7.268;2024-03-02T04:41:26;99512.41;;;8.50;100.00
15272;BME280;7737;51.578;7.268;2024-03-02T04:43:53;99518.88;;;8.60;100.00
15272;BME280;7737;51.578;7.268;2024-03-02T04:46:19;99518.56;;;8.50;100.00
15272;BME280;7737;51.578;7.268;2024-03-02T04:48:46;99519.22;;;8.54;100.00
15272;BME280;7737;51.578;7.268;2024-03-02T04:51:13;99525.19;;;8.57;100.00
15272;BME280;7737;51.578;7.268;2024-03-02T04:53:40;99534.09;;;8.56;100.00
15272;BME280;7737;51.578;7.268;2024-03-02T04:56:08;99533.59;;;8.50;100.00
15272;BME280;7737;51.578;7.268;2024-03-02T04:59:04;99534.09;;;8.56;100.00
15272;BME280;7737;51.578;7.268;2024-03-02T05:01:31;99533.78;;;8.47;100.00
15272;BME280;7737;51.578;7.268;2024-03-02T05:03:58;99536.63;;;8.44;100.00
15272;BME280;7737;51.578;7.268;2024-03-02T05:06:24;99540.78;;;8.48;100.00
15272;BME280;7737;51.578;7.268;2024-03-02T05:08:51;99536.03;;;8.39;100.00
15272;BME280;7737;51.578;7.268;2024-03-02T05:11:19;99535.19;;;8.38;100.00
15272;BME280;7737;51.578;7.268;2024-03-02T05:14:18;99547.69;;;8.36;100.00
15272;BME280;7737;51.578;7.268;2024-03-02T05:16:44;99543.75;;;8.28;100.00
15272;BME280;7737;51.578;7.268;2024-03-02T05:19:10;99551.16;;;8.37;100.00
15272;BME280;7737;51.578;7.268;2024-03-02T05:21:37;99547.00;;;8.33;100.00
15272;BME280;7737;51.578;7.268;2024-03-02T05:24:04;99542.03;;;8.27;100.00
15272;BME280;7737;51.578;7.268;2024-03-02T05:26:32;99545.28;;;8.32;100.00
15272;BME280;7737;51.578;7.268;2024-03-02T05:28:58;99541.25;;;8.25;100.00
15272;BME280;7737;51.578;7.268;2024-03-02T05:31:25;99536.56;;;8.30;100.00
15272;BME280;7737;51.578;7.268;2024-03-02T05:33:51;99538.78;;;8.22;100.00
15272;BME280;7737;51.578;7.268;2024-03-02T05:36:18;99543.16;;;8.23;100.00
15272;BME280;7737;51.578;7.268;2024-03-02T05:38:46;99546.16;;;8.17;100.00
15272;BME280;7737;51.578;7.268;2024-03-02T05:41:12;99563.75;;;8.18;100.00
15272;BME280;7737;51.578;7.268;2024-03-02T05:43:40;99565.81;;;8.13;100.00
15272;BME280;7737;51.578;7.268;2024-03-02T05:46:06;99563.06;;;8.14;100.00
15272;BME280;7737;51.578;7.268;2024-03-02T05:48:33;99566.16;;;8.07;100.00
15272;BME280;7737;51.578;7.268;2024-03-02T05:50:59;99564.00;;;8.13;100.00
15272;BME280;7737;51.578;7.268;2024-03-02T05:53:26;99558.47;;;8.18;100.00
15272;BME280;7737;51.578;7.268;2024-03-02T05:55:53;99553.84;;;8.06;100.00
15272;BME280;7737;51.578;7.268;2024-03-02T05:58:21;99558.13;;;8.08;100.00
15272;BME280;7737;51.578;7.268;2024-03-02T06:00:59;99562.56;;;8.08;100.00
15272;BME280;7737;51.578;7.268;2024-03-02T06:03:31;99559.56;;;8.14;100.00
15272;BME280;7737;51.578;7.268;2024-03-02T06:05:58;99567.78;;;8.09;100.00
15272;BME280;7737;51.578;7.268;2024-03-02T06:08:24;99570.16;;;8.14;100.00
15272;BME280;7737;51.578;7.268;2024-03-02T06:10:52;99570.06;;;7.99;100.00
15272;BME280;7737;51.578;7.268;2024-03-02T06:13:19;99573.84;;;7.95;100.00
15272;BME280;7737;51.578;7.268;2024-03-02T06:15:45;99578.97;;;7.98;100.00
15272;BME280;7737;51.578;7.268;2024-03-02T06:18:13;99579.84;;;7.99;100.00
15272;BME280;7737;51.578;7.268;2024-03-02T06:20:40;99577.78;;;8.04;100.00
15272;BME280;7737;51.578;7.268;2024-03-02T06:23:06;99584.09;;;8.02;100.00
15272;BME280;7737;51.578;7.268;2024-03-02T06:25:33;99588.44;;;8.03;100.00
15272;BME280;7737;51.578;7.268;2024-03-02T06:27:59;99580.16;;;8.09;100.00
15272;BME280;7737;51.578;7.268;2024-03-02T06:30:26;99583.94;;;8.05;100.00
15272;BME280;7737;51.578;7.268;2024-03-02T06:32:52;99582.91;;;8.07;100.00
15272;BME280;7737;51.578;7.268;2024-03-02T06:35:20;99594.31;;;8.08;100.00
15272;BME280;7737;51.578;7.268;2024-03-02T06:37:47;99591.50;;;8.11;100.00
15272;BME280;7737;51.578;7.268;2024-03-02T06:40:14;99606.63;;;8.09;100.00
15272;BME280;7737;51.578;7.268;2024-03-02T06:42:40;99602.88;;;8.13;100.00
15272;BME280;7737;51.578;7.268;2024-03-02T06:45:07;99609.16;;;8.10;100.00
15272;BME280;7737;51.578;7.268;2024-03-02T06:47:33;99619.50;;;8.15;100.00
15272;BME280;7737;51.578;7.268;2024-03-02T06:50:00;99624.03;;;8.13;100.00
15272;BME280;7737;51.578;7.268;2024-03-02T06:52:27;99618.38;;;8.19;100.00
15272;BME280;7737;51.578;7.268;2024-03-02T06:54:54;99618.53;;;8.16;100.00
15272;BME280;7737;51.578;7.268;2024-03-02T06:57:20;99618.03;;;8.25;100.00
15272;BME280;7737;51.578;7.268;2024-03-02T06:59:47;99627.63;;;8.12;100.00
15272;BME280;7737;51.578;7.268;2024-03-02T07:02:15;99624.34;;;8.22;100.00
15272;BME280;7737;51.578;7.268;2024-03-02T07:04:42;99624.03;;;8.28;100.00
15272;BME280;7737;51.578;7.268;2024-03-02T07:07:08;99622.16;;;8.30;100.00
15272;BME280;7737;51.578;7.268;2024-03-02T07:09:36;99630.28;;;8.27;100.00
15272;BME280;7737;51.578;7.268;2024-03-02T07:12:03;99627.34;;;8.32;100.00
15272;BME280;7737;51.578;7.268;2024-03-02T07:14:30;99625.28;;;8.37;100.00
15272;BME280;7737;51.578;7.268;2024-03-02T07:17:10;99626.25;;;8.36;100.00
15272;BME280;7737;51.578;7.268;2024-03-02T07:19:38;99628.34;;;8.45;100.00
15272;BME280;7737;51.578;7.268;2024-03-02T07:22:06;99632.09;;;8.56;100.00
15272;BME280;7737;51.578;7.268;2024-03-02T07:24:40;99634.72;;;8.56;100.00
15272;BME280;7737;51.578;7.268;2024-03-02T07:27:07;99634.38;;;8.63;100.00
15272;BME280;7737;51.578;7.268;2024-03-02T07:29:34;99632.97;;;8.71;100.00
15272;BME280;7737;51.578;7.268;2024-03-02T07:32:00;99636.22;;;8.76;100.00
15272;BME280;7737;51.578;7.268;2024-03-02T07:34:27;99632.25;;;8.83;100.00
15272;BME280;7737;51.578;7.268;2024-03-02T07:36:53;99626.13;;;8.97;100.00
15272;BME280;7737;51.578;7.268;2024-03-02T07:39:20;99615.22;;;9.01;100.00
15272;BME280;7737;51.578;7.268;2024-03-02T07:41:48;99618.44;;;9.06;100.00
15272;BME280;7737;51.578;7.268;2024-03-02T07:44:15;99613.66;;;9.13;100.00
15272;BME280;7737;51.578;7.268;2024-03-02T07:46:41;99606.81;;;9.23;100.00
15272;BME280;7737;51.578;7.268;2024-03-02T07:49:09;99608.25;;;9.29;100.00
15272;BME280;7737;51.578;7.268;2024-03-02T07:51:35;99590.63;;;9.28;100.00
15272;BME280;7737;51.578;7.268;2024-03-02T07:54:02;99602.34;;;9.52;100.00
15272;BME280;7737;51.578;7.268;2024-03-02T07:56:29;99609.00;;;9.45;100.00
15272;BME280;7737;51.578;7.268;2024-03-02T08:02:19;99598.91;;;9.64;100.00
15272;BME280;7737;51.578;7.268;2024-03-02T08:04:46;99597.78;;;9.68;100.00
15272;BME280;7737;51.578;7.268;2024-03-02T08:07:12;99593.78;;;9.75;100.00
15272;BME280;7737;51.578;7.268;2024-03-02T08:09:39;99594.13;;;9.83;100.00
15272;BME280;7737;51.578;7.268;2024-03-02T08:12:06;99599.63;;;9.80;100.00
15272;BME280;7737;51.578;7.268;2024-03-02T08:14:33;99594.50;;;9.91;100.00
15272;BME280;7737;51.578;7.268;2024-03-02T08:17:00;99584.03;;;10.02;100.00
15272;BME280;7737;51.578;7.268;2024-03-02T08:19:29;99580.00;;;10.09;100.00
15272;BME280;7737;51.578;7.268;2024-03-02T08:21:55;99574.16;;;10.18;100.00
15272;BME280;7737;51.578;7.268;2024-03-02T08:24:22;99580.75;;;10.11;100.00
15272;BME280;7737;51.578;7.268;2024-03-02T08:26:48;99577.00;;;10.15;100.00
15272;BME280;7737;51.578;7.268;2024-03-02T08:29:15;99584.97;;;10.15;100.00
15272;BME280;7737;51.578;7.268;2024-03-02T08:31:42;99588.16;;;10.20;100.00
15272;BME280;7737;51.578;7.268;2024-03-02T08:34:08;99583.13;;;10.43;100.00
15272;BME280;7737;51.578;7.268;2024-03-02T08:36:36;99588.88;;;10.49;100.00
15272;BME280;7737;51.578;7.268;2024-03-02T08:39:03;99582.59;;;10.37;100.00
15272;BME280;7737;51.578;7.268;2024-03-02T08:41:40;99587.81;;;10.52;100.00
15272;BME280;7737;51.578;7.268;2024-03-02T08:44:07;99574.06;;;10.72;100.00
15272;BME280;7737;51.578;7.268;2024-03-02T08:46:34;99573.59;;;10.78;100.00
15272;BME280;7737;51.578;7.268;2024-03-02T08:49:00;99568.31;;;10.90;100.00
15272;BME280;7737;51.578;7.268;2024-03-02T08:51:27;99567.25;;;10.93;100.00
15272;BME280;7737;51.578;7.268;2024-03-02T08:53:55;99568.53;;;11.00;100.00
15272;BME280;7737;51.578;7.268;2024-03-02T08:56:21;99568.53;;;11.00;100.00
15272;BME280;7737;51.578;7.268;2024-03-02T08:58:49;99562.56;;;11.09;100.00
15272;BME280;7737;51.578;7.268;2024-03-02T09:01:16;99553.28;;;11.27;100.00
15272;BME280;7737;51.578;7.268;2024-03-02T09:03:44;99549.75;;;11.39;100.00
15272;BME280;7737;51.578;7.268;2024-03-02T09:06:11;99552.97;;;11.19;100.00
15272;BME280;7737;51.578;7.268;2024-03-02T09:08:37;99556.03;;;11.26;100.00
15272;BME280;7737;51.578;7.268;2024-03-02T09:11:06;99541.16;;;11.23;100.00
15272;BME280;7737;51.578;7.268;2024-03-02T09:13:33;99546.03;;;11.29;100.00
15272;BME280;7737;51.578;7.268;2024-03-02T09:16:00;99539.22;;;11.38;100.00
15272;BME280;7737;51.578;7.268;2024-03-02T09:18:28;99521.97;;;11.43;100.00
15272;BME280;7737;51.578;7.268;2024-03-02T09:20:54;99525.88;;;11.50;100.00
15272;BME280;7737;51.578;7.268;2024-03-02T09:23:21;99527.81;;;11.48;100.00
15272;BME280;7737;51.578;7.268;2024-03-02T09:25:47;99532.16;;;11.49;100.00
15272;BME280;7737;51.578;7.268;2024-03-02T09:28:16;99527.81;;;11.48;100.00
15272;BME280;7737;51.578;7.268;2024-03-02T09:30:43;99530.56;;;11.59;100.00
15272;BME280;7737;51.578;7.268;2024-03-02T09:33:10;99531.38;;;11.60;100.00
15272;BME280;7737;51.578;7.268;2024-03-02T09:35:37;99533.22;;;11.59;100.00
15272;BME280;7737;51.578;7.268;2024-03-02T09:38:03;99524.16;;;11.49;100.00
15272;BME280;7737;51.578;7.268;2024-03-02T09:40:30;99531.59;;;11.70;100.00
15272;BME280;7737;51.578;7.268;2024-03-02T09:42:56;99514.47;;;11.61;100.00
15272;BME280;7737;51.578;7.268;2024-03-02T09:45:25;99523.69;;;11.68;100.00
15272;BME280;7737;51.578;7.268;2024-03-02T09:47:52;99522.41;;;11.74;100.00
15272;BME280;7737;51.578;7.268;2024-03-02T09:50:18;99527.31;;;11.80;100.00
15272;BME280;7737;51.578;7.268;2024-03-02T09:52:48;99514.50;;;11.85;100.00
15272;BME280;7737;51.578;7.268;2024-03-02T09:55:15;99517.22;;;11.96;100.00
15272;BME280;7737;51.578;7.268;2024-03-02T09:57:42;99510.81;;;11.98;100.00
15272;BME280;7737;51.578;7.268;2024-03-02T10:00:09;99496.06;;;12.05;100.00
15272;BME280;7737;51.578;7.268;2024-03-02T10:02:41;99483.78;;;11.92;100.00
15272;BME280;7737;51.578;7.268;2024-03-02T10:05:08;99483.41;;;12.20;100.00
15272;BME280;7737;51.578;7.268;2024-03-02T10:07:35;99486.59;;;12.25;100.00
15272;BME280;7737;51.578;7.268;2024-03-02T10:10:12;99478.84;;;12.33;100.00
15272;BME280;7737;51.578;7.268;2024-03-02T10:12:39;99468.75;;;12.14;100.00
15272;BME280;7737;51.578;7.268;2024-03-02T10:15:06;99464.72;;;12.44;100.00
15272;BME280;7737;51.578;7.268;2024-03-02T10:17:34;99463.84;;;12.43;100.00
15272;BME280;7737;51.578;7.268;2024-03-02T10:20:21;99452.72;;;12.49;100.00
15272;BME280;7737;51.578;7.268;2024-03-02T10:22:48;99454.31;;;12.52;100.00
15272;BME280;7737;51.578;7.268;2024-03-02T10:25:28;99440.63;;;12.67;100.00
15272;BME280;7737;51.578;7.268;2024-03-02T10:27:57;99449.13;;;12.83;100.00
15272;BME280;7737;51.578;7.268;2024-03-02T10:30:23;99438.22;;;12.75;100.00
15272;BME280;7737;51.578;7.268;2024-03-02T10:32:50;99421.06;;;13.00;100.00
15272;BME280;7737;51.578;7.268;2024-03-02T10:35:19;99420.25;;;12.89;100.00
15272;BME280;7737;51.578;7.268;2024-03-02T10:37:47;99412.59;;;12.84;100.00
15272;BME280;7737;51.578;7.268;2024-03-02T10:40:14;99407.03;;;12.98;100.00
15272;BME280;7737;51.578;7.268;2024-03-02T10:42:41;99400.13;;;13.07;100.00
15272;BME280;7737;51.578;7.268;2024-03-02T10:45:09;99405.22;;;13.10;100.00
15272;BME280;7737;51.578;7.268;2024-03-02T10:47:37;99394.78;;;13.29;100.00
15272;BME280;7737;51.578;7.268;2024-03-02T10:50:05;99386.19;;;13.14;100.00
15272;BME280;7737;51.578;7.268;2024-03-02T10:52:35;99393.31;;;13.88;100.00
15272;BME280;7737;51.578;7.268;2024-03-02T10:55:01;99375.91;;;13.73;100.00
15272;BME280;7737;51.578;7.268;2024-03-02T10:57:33;99370.19;;;13.98;100.00
15272;BME280;7737;51.578;7.268;2024-03-02T11:00:03;99368.81;;;13.83;100.00
15272;BME280;7737;51.578;7.268;2024-03-02T11:02:35;99363.28;;;13.96;99.81
15272;BME280;7737;51.578;7.268;2024-03-02T11:05:06;99362.22;;;13.87;98.72
15272;BME280;7737;51.578;7.268;2024-03-02T11:07:36;99353.31;;;14.19;98.88
15272;BME280;7737;51.578;7.268;2024-03-02T11:10:05;99350.09;;;14.45;98.81
15272;BME280;7737;51.578;7.268;2024-03-02T11:12:36;99359.22;;;14.73;99.29
15272;BME280;7737;51.578;7.268;2024-03-02T11:15:09;99338.28;;;14.48;97.70
15272;BME280;7737;51.578;7.268;2024-03-02T11:17:36;99342.41;;;14.61;97.57
15272;BME280;7737;51.578;7.268;2024-03-02T11:20:05;99331.69;;;14.52;97.56
15272;BME280;7737;51.578;7.268;2024-03-02T11:22:36;99319.84;;;14.45;95.38
15272;BME280;7737;51.578;7.268;2024-03-02T11:25:04;99302.53;;;14.19;94.30
15272;BME280;7737;51.578;7.268;2024-03-02T11:27:59;99317.59;;;14.50;95.34
15272;BME280;7737;51.578;7.268;2024-03-02T11:30:51;99287.09;;;14.62;93.62
15272;BME280;7737;51.578;7.268;2024-03-02T11:33:25;99299.56;;;14.82;94.08
15272;BME280;7737;51.578;7.268;2024-03-02T11:35:52;99281.78;;;14.81;92.28
15272;BME280;7737;51.578;7.268;2024-03-02T11:38:20;99265.47;;;14.84;91.50
15272;BME280;7737;51.578;7.268;2024-03-02T11:40:47;99252.66;;;15.07;90.62
15272;BME280;7737;51.578;7.268;2024-03-02T11:43:14;99252.53;;;15.27;91.02
15272;BME280;7737;51.578;7.268;2024-03-02T11:45:42;99263.53;;;15.24;91.21
15272;BME280;7737;51.578;7.268;2024-03-02T11:48:11;99240.56;;;15.22;89.85
15272;BME280;7737;51.578;7.268;2024-03-02T11:50:41;99249.03;;;15.56;90.13
15272;BME280;7737;51.578;7.268;2024-03-02T11:53:10;99221.59;;;15.81;88.64
15272;BME280;7737;51.578;7.268;2024-03-02T11:55:39;99224.81;;;15.94;88.15
15272;BME280;7737;51.578;7.268;2024-03-02T11:58:07;99186.13;;;15.60;85.97
15272;BME280;7737;51.578;7.268;2024-03-02T12:00:34;99188.81;;;15.60;85.37
15272;BME280;7737;51.578;7.268;2024-03-02T12:03:01;99193.56;;;15.75;86.29
15272;BME280;7737;51.578;7.268;2024-03-02T12:05:28;99194.56;;;16.11;86.53
15272;BME280;7737;51.578;7.268;2024-03-02T12:07:56;99184.63;;;16.21;85.59
15272;BME280;7737;51.578;7.268;2024-03-02T12:10:23;99170.63;;;16.27;84.48
15272;BME280;7737;51.578;7.268;2024-03-02T12:12:56;99153.81;;;15.71;83.75
15272;BME280;7737;51.578;7.268;2024-03-02T12:15:25;99164.66;;;16.06;84.01
15272;BME280;7737;51.578;7.268;2024-03-02T12:17:53;99150.09;;;15.81;83.25
15272;BME280;7737;51.578;7.268;2024-03-02T12:20:20;99150.88;;;16.01;83.39
15272;BME280;7737;51.578;7.268;2024-03-02T12:22:49;99155.97;;;16.22;83.74
15272;BME280;7737;51.578;7.268;2024-03-02T12:25:16;99167.41;;;16.41;84.60
15272;BME280;7737;51.578;7.268;2024-03-02T12:27:42;99157.78;;;16.04;84.46
15272;BME280;7737;51.578;7.268;2024-03-02T12:30:11;99149.66;;;16.13;82.98
15272;BME280;7737;51.578;7.268;2024-03-02T12:32:39;99175.53;;;15.77;84.65
15272;BME280;7737;51.578;7.268;2024-03-02T12:35:07;99190.91;;;15.66;84.71
15272;BME280;7737;51.578;7.268;2024-03-02T12:37:42;99202.28;;;15.87;84.78
15272;BME280;7737;51.578;7.268;2024-03-02T12:40:09;99198.50;;;16.07;85.25
15272;BME280;7737;51.578;7.268;2024-03-02T12:42:36;99201.69;;;15.93;85.76
15272;BME280;7737;51.578;7.268;2024-03-02T12:45:03;99201.22;;;15.61;84.33
15272;BME280;7737;51.578;7.268;2024-03-02T12:47:31;99200.25;;;15.62;85.04
15272;BME280;7737;51.578;7.268;2024-03-02T12:49:58;99205.28;;;15.65;85.01
15272;BME280;7737;51.578;7.268;2024-03-02T12:52:25;99197.56;;;15.62;84.35
15272;BME280;7737;51.578;7.268;2024-03-02T12:54:52;99200.38;;;15.97;84.45
15272;BME280;7737;51.578;7.268;2024-03-02T12:57:25;99188.13;;;15.95;84.94
15272;BME280;7737;51.578;7.268;2024-03-02T12:59:52;99208.03;;;15.92;85.06
15272;BME280;7737;51.578;7.268;2024-03-02T13:02:19;99202.06;;;15.52;85.01
15272;BME280;7737;51.578;7.268;2024-03-02T13:04:53;99221.69;;;15.52;86.27
15272;BME280;7737;51.578;7.268;2024-03-02T13:07:20;99218.88;;;15.54;86.33
15272;BME280;7737;51.578;7.268;2024-03-02T13:09:47;99228.88;;;15.33;86.52
15272;BME280;7737;51.578;7.268;2024-03-02T13:12:15;99225.19;;;15.53;85.65
15272;BME280;7737;51.578;7.268;2024-03-02T13:14:41;99229.13;;;15.68;86.90